createdAt,value
2018-08-03T00:00:45.604Z,9.17
2018-08-03T00:05:48.772Z,9.20
2018-08-03T00:10:52.083Z,9.10
2018-08-03T00:15:55.116Z,9.27
2018-08-03T00:20:58.216Z,9.90
2018-08-03T00:26:01.412Z,9.20
2018-08-03T00:31:04.720Z,9.80
2018-08-03T00:36:08.831Z,8.43
2018-08-03T00:41:12.058Z,9.90
2018-08-03T00:46:15.267Z,9.13
2018-08-03T00:51:18.563Z,9.00
2018-08-03T00:56:21.555Z,9.30
2018-08-03T01:01:24.689Z,9.37
2018-08-03T01:06:27.681Z,9.47
2018-08-03T01:11:30.878Z,9.70
2018-08-03T01:16:39.404Z,10.50
2018-08-03T01:21:44.119Z,10.17
2018-08-03T01:26:47.095Z,9.37
2018-08-03T01:31:50.279Z,10.13
2018-08-03T01:36:53.282Z,9.43
2018-08-03T01:41:56.520Z,10.80
2018-08-03T01:46:59.704Z,10.33
2018-08-03T01:52:02.928Z,9.77
2018-08-03T01:57:06.644Z,9.70
2018-08-03T02:02:09.743Z,9.70
2018-08-03T02:07:12.711Z,9.90
2018-08-03T02:12:15.725Z,9.47
2018-08-03T02:17:18.696Z,9.40
2018-08-03T02:22:21.724Z,10.20
2018-08-03T02:27:24.683Z,9.40
2018-08-03T02:32:27.874Z,9.10
2018-08-03T02:37:30.859Z,9.27
2018-08-03T02:42:33.858Z,10.33
2018-08-03T02:47:36.966Z,10.97
2018-08-03T02:52:39.943Z,9.60
2018-08-03T02:57:42.909Z,11.13
2018-08-03T03:02:45.858Z,10.50
2018-08-03T03:07:48.884Z,10.63
2018-08-03T03:12:52.035Z,9.20
2018-08-03T03:17:55.337Z,10.70
2018-08-03T03:22:58.295Z,10.60
2018-08-03T03:28:02.327Z,10.37
2018-08-03T03:33:05.315Z,10.53
2018-08-03T03:38:08.547Z,10.73
2018-08-03T03:43:11.865Z,11.40
2018-08-03T03:48:14.835Z,10.33
2018-08-03T03:53:17.973Z,11.70
2018-08-03T03:58:20.969Z,10.50
2018-08-03T04:03:23.956Z,9.87
2018-08-03T04:08:26.918Z,10.70
2018-08-03T04:13:31.172Z,10.43
2018-08-03T04:18:34.182Z,10.77
2018-08-03T04:23:37.305Z,10.43
2018-08-03T04:28:40.454Z,10.63
2018-08-03T04:33:43.953Z,10.03
2018-08-03T04:38:47.177Z,11.17
2018-08-03T04:43:50.184Z,11.93
2018-08-03T04:48:53.668Z,11.40
2018-08-03T04:53:56.684Z,10.90
2018-08-03T04:58:59.771Z,10.13
2018-08-03T05:04:02.827Z,10.13
2018-08-03T05:09:06.568Z,10.00
2018-08-03T05:14:09.908Z,10.20
2018-08-03T05:19:12.880Z,10.70
2018-08-03T05:24:15.942Z,9.10
2018-08-03T05:29:18.960Z,9.23
2018-08-03T05:34:22.004Z,10.50
2018-08-03T05:39:25.012Z,10.23
2018-08-03T05:44:27.980Z,10.43
2018-08-03T05:49:31.016Z,10.20
2018-08-03T05:54:34.159Z,10.37
2018-08-03T05:59:39.187Z,10.37
2018-08-03T06:04:42.224Z,10.80
2018-08-03T06:09:46.026Z,10.87
2018-08-03T06:14:49.123Z,11.60
2018-08-03T06:19:52.267Z,11.17
2018-08-03T06:24:55.776Z,11.40
2018-08-03T06:29:58.787Z,10.83
2018-08-03T06:35:01.992Z,9.53
2018-08-03T06:40:05.304Z,9.60
2018-08-03T06:45:08.349Z,10.73
2018-08-03T06:50:11.358Z,10.73
2018-08-03T06:55:14.628Z,11.37
2018-08-03T07:00:17.840Z,11.10
2018-08-03T07:05:20.830Z,10.03
2018-08-03T07:10:23.916Z,10.40
2018-08-03T07:15:27.159Z,10.03
2018-08-03T07:20:30.279Z,9.30
2018-08-03T07:25:33.368Z,9.77
2018-08-03T07:30:36.403Z,9.83
2018-08-03T07:35:39.427Z,10.53
2018-08-03T07:40:43.610Z,9.20
2018-08-03T07:45:46.609Z,10.10
2018-08-03T07:50:49.572Z,9.37
2018-08-03T07:55:52.642Z,9.00
2018-08-03T08:00:55.927Z,9.30
2018-08-03T08:05:59.130Z,9.53
2018-08-03T08:11:02.359Z,10.67
2018-08-03T08:16:05.652Z,10.27
2018-08-03T08:21:08.672Z,10.10
2018-08-03T08:26:12.016Z,9.17
2018-08-03T08:31:15.287Z,9.87
2018-08-03T08:36:18.491Z,9.93
2018-08-03T08:41:21.555Z,9.23
2018-08-03T08:46:24.810Z,9.00
2018-08-03T08:51:28.817Z,9.60
2018-08-03T08:56:32.039Z,9.60
2018-08-03T09:01:35.378Z,9.70
2018-08-03T09:06:38.458Z,9.20
2018-08-03T09:11:41.578Z,10.27
2018-08-03T09:16:45.445Z,10.00
2018-08-03T09:21:48.471Z,9.73
2018-08-03T09:26:52.675Z,9.73
2018-08-03T09:31:55.928Z,9.70
2018-08-03T09:37:00.084Z,10.20
2018-08-03T09:42:03.263Z,10.37
2018-08-03T09:47:06.325Z,10.23
2018-08-03T09:52:09.361Z,10.40
2018-08-03T09:57:12.660Z,9.90
2018-08-03T10:02:15.655Z,11.00
2018-08-03T10:07:18.631Z,10.60
2018-08-03T10:12:21.819Z,10.63
2018-08-03T10:17:25.028Z,9.20
2018-08-03T10:22:28.300Z,9.77
2018-08-03T10:27:31.224Z,9.50
2018-08-03T10:32:34.856Z,9.40
2018-08-03T10:37:38.052Z,8.80
2018-08-03T10:42:41.172Z,9.30
2018-08-03T10:47:44.919Z,7.60
2018-08-03T10:52:48.231Z,9.93
2018-08-03T10:57:51.511Z,7.53
2018-08-03T11:02:55.840Z,8.03
2018-08-03T11:07:58.939Z,8.40
2018-08-03T11:13:02.268Z,8.43
2018-08-03T11:18:05.496Z,8.37
2018-08-03T11:23:08.779Z,8.00
2018-08-03T11:28:11.850Z,8.00
2018-08-03T11:33:14.895Z,7.50
2018-08-03T11:38:17.972Z,7.40
2018-08-03T11:43:21.158Z,7.40
2018-08-03T11:48:25.079Z,8.27
2018-08-03T11:53:27.966Z,7.63
2018-08-03T11:58:31.093Z,7.83
2018-08-03T12:03:34.349Z,8.27
2018-08-03T12:08:37.530Z,8.47
2018-08-03T12:13:40.633Z,8.00
2018-08-03T12:18:43.636Z,7.60
2018-08-03T12:23:46.786Z,7.27
2018-08-03T12:28:49.833Z,8.60
2018-08-03T12:33:53.166Z,9.37
2018-08-03T12:38:56.386Z,7.40
2018-08-03T12:43:59.499Z,7.43
2018-08-03T12:49:02.923Z,8.10
2018-08-03T12:54:06.136Z,7.70
2018-08-03T12:59:09.080Z,7.50
2018-08-03T13:04:12.087Z,7.50
2018-08-03T13:09:15.037Z,7.60
2018-08-03T13:14:18.252Z,8.07
2018-08-03T13:19:21.232Z,6.80
2018-08-03T13:24:24.272Z,8.10
2018-08-03T13:29:27.582Z,7.73
2018-08-03T13:34:30.606Z,7.63
2018-08-03T13:39:33.632Z,10.00
2018-08-03T13:44:36.835Z,8.30
2018-08-03T13:49:39.859Z,8.23
2018-08-03T13:54:43.029Z,8.50
2018-08-03T13:59:46.058Z,7.63
2018-08-03T14:04:49.161Z,8.03
2018-08-03T14:09:52.667Z,8.17
2018-08-03T14:14:55.945Z,8.73
2018-08-03T14:19:59.228Z,8.43
2018-08-03T14:25:02.271Z,7.70
2018-08-03T14:30:07.101Z,6.10
2018-08-03T14:35:10.326Z,7.23
2018-08-03T14:40:13.628Z,7.77
2018-08-03T14:45:16.754Z,7.03
2018-08-03T14:50:19.873Z,7.97
2018-08-03T14:55:22.910Z,6.93
2018-08-03T15:00:25.993Z,9.17
2018-08-03T15:05:29.246Z,7.33
2018-08-03T15:10:32.638Z,6.87
2018-08-03T15:15:35.892Z,7.50
2018-08-03T15:20:39.091Z,7.33
2018-08-03T15:25:42.230Z,22.30
2018-08-03T15:30:45.222Z,6.47
2018-08-03T15:35:48.520Z,7.07
2018-08-03T15:40:51.753Z,6.47
2018-08-03T15:45:55.244Z,6.77
2018-08-03T15:50:58.307Z,6.73
2018-08-03T15:56:01.661Z,7.07
2018-08-03T16:01:04.808Z,6.80
2018-08-03T16:06:08.082Z,6.57
2018-08-03T16:11:11.262Z,6.63
2018-08-03T16:16:14.593Z,6.00
2018-08-03T16:21:17.806Z,6.33
2018-08-03T16:26:21.319Z,8.60
2018-08-03T16:31:24.477Z,7.50
2018-08-03T16:36:27.664Z,6.10
2018-08-03T16:41:30.957Z,6.90
2018-08-03T16:46:34.306Z,6.40
2018-08-03T16:51:37.565Z,6.50
2018-08-03T16:56:40.775Z,6.50
2018-08-03T17:01:43.909Z,6.77
2018-08-03T17:06:47.289Z,6.20
2018-08-03T17:11:50.419Z,15.03
2018-08-03T17:16:53.617Z,6.60
2018-08-03T17:21:56.913Z,6.93
2018-08-03T17:27:00.124Z,6.20
2018-08-03T17:32:03.215Z,6.37
2018-08-03T17:37:06.447Z,6.90
2018-08-03T17:42:09.659Z,6.80
2018-08-03T17:47:12.930Z,6.60
2018-08-03T17:52:15.967Z,5.77
2018-08-03T17:57:19.184Z,6.30
2018-08-03T18:02:22.244Z,6.17
2018-08-03T18:07:25.410Z,6.53
2018-08-03T18:12:28.671Z,6.50
2018-08-03T18:17:31.717Z,6.03
2018-08-03T18:22:35.102Z,6.10
2018-08-03T18:27:38.214Z,6.30
2018-08-03T18:32:41.542Z,6.37
2018-08-03T18:37:44.621Z,5.70
2018-08-03T18:42:47.772Z,5.97
2018-08-03T18:47:51.137Z,6.03
2018-08-03T18:52:54.361Z,6.50
2018-08-03T18:57:57.576Z,6.53
2018-08-03T19:03:00.780Z,7.10
2018-08-03T19:08:03.975Z,5.80
2018-08-03T19:13:07.142Z,6.60
2018-08-03T19:18:10.765Z,6.03
2018-08-03T19:23:14.004Z,6.83
2018-08-03T19:28:17.320Z,6.13
2018-08-03T19:33:20.550Z,6.83
2018-08-03T19:38:23.707Z,6.77
2018-08-03T19:43:26.743Z,6.40
2018-08-03T19:48:29.980Z,6.80
2018-08-03T19:53:33.285Z,5.60
2018-08-03T19:58:36.379Z,6.20
2018-08-03T20:03:39.504Z,5.83
2018-08-03T20:08:42.603Z,6.03
2018-08-03T20:13:45.717Z,6.23
2018-08-03T20:18:48.885Z,6.13
2018-08-03T20:23:52.252Z,7.30
2018-08-03T20:28:55.277Z,7.03
2018-08-03T20:33:58.532Z,6.00
2018-08-03T20:39:01.812Z,6.80
2018-08-03T20:44:05.068Z,6.50
2018-08-03T20:49:08.283Z,6.30
2018-08-03T20:54:11.585Z,7.43
2018-08-03T20:59:14.796Z,6.27
2018-08-03T21:04:17.996Z,7.30
2018-08-03T21:09:21.223Z,7.50
2018-08-03T21:14:24.240Z,7.43
2018-08-03T21:19:27.540Z,8.07
2018-08-03T21:24:30.573Z,7.50
2018-08-03T21:29:33.948Z,6.40
2018-08-03T21:34:37.043Z,6.83
2018-08-03T21:39:40.272Z,7.93
2018-08-03T21:44:43.472Z,7.73
2018-08-03T21:49:46.677Z,6.80
2018-08-03T21:54:49.878Z,7.53
2018-08-03T21:59:53.156Z,7.87
2018-08-03T22:04:56.207Z,6.63
2018-08-03T22:09:59.264Z,7.20
2018-08-03T22:15:02.372Z,6.87
2018-08-03T22:20:05.552Z,7.67
2018-08-03T22:25:08.926Z,6.30
2018-08-03T22:30:12.751Z,6.63
2018-08-03T22:35:15.962Z,7.10
2018-08-03T22:40:19.176Z,6.50
2018-08-03T22:45:22.220Z,7.00
2018-08-03T22:50:25.203Z,7.50
2018-08-03T22:55:28.248Z,7.50
2018-08-03T23:00:31.703Z,7.40
2018-08-03T23:05:34.736Z,6.70
2018-08-03T23:10:37.896Z,6.63
2018-08-03T23:15:41.064Z,7.30
2018-08-03T23:20:44.100Z,7.50
2018-08-03T23:25:47.099Z,7.40
2018-08-03T23:30:50.310Z,7.27
2018-08-03T23:35:53.637Z,7.47
2018-08-03T23:40:57.235Z,7.80
2018-08-03T23:46:00.243Z,7.90
2018-08-03T23:51:03.476Z,8.53
2018-08-03T23:56:06.692Z,10.40
